sensor_id;sensor_type;location;lat;lon;timestamp;P1;durP1;ratioP1;P2;durP2;ratioP2
55300;SDS011;58302;51.446;-2.000;2022-12-18T00:00:58;13.88;;;8.48;;
55300;SDS011;58302;51.446;-2.000;2022-12-18T00:03:24;16.48;;;8.05;;
55300;SDS011;58302;51.446;-2.000;2022-12-18T00:05:51;14.88;;;8.45;;
55300;SDS011;58302;51.446;-2.000;2022-12-18T00:08:18;9.35;;;5.35;;
55300;SDS011;58302;51.446;-2.000;2022-12-18T00:10:45;8.77;;;5.63;;
55300;SDS011;58302;51.446;-2.000;2022-12-18T00:13:11;12.38;;;5.80;;
55300;SDS011;58302;51.446;-2.000;2022-12-18T00:15:38;15.77;;;8.77;;
55300;SDS011;58302;51.446;-2.000;2022-12-18T00:18:05;11.80;;;7.07;;
55300;SDS011;58302;51.446;-2.000;2022-12-18T00:20:32;10.73;;;6.80;;
55300;SDS011;58302;51.446;-2.000;2022-12-18T00:23:01;16.70;;;7.85;;
55300;SDS011;58302;51.446;-2.000;2022-12-18T00:25:27;13.32;;;8.88;;
55300;SDS011;58302;51.446;-2.000;2022-12-18T00:27:53;16.45;;;8.40;;
55300;SDS011;58302;51.446;-2.000;2022-12-18T00:30:19;12.55;;;6.60;;
55300;SDS011;58302;51.446;-2.000;2022-12-18T00:32:45;14.80;;;8.15;;
55300;SDS011;58302;51.446;-2.000;2022-12-18T00:35:11;18.55;;;8.75;;
55300;SDS011;58302;51.446;-2.000;2022-12-18T00:37:37;14.48;;;9.00;;
55300;SDS011;58302;51.446;-2.000;2022-12-18T00:40:03;15.57;;;8.50;;
55300;SDS011;58302;51.446;-2.000;2022-12-18T00:42:29;14.93;;;8.43;;
55300;SDS011;58302;51.446;-2.000;2022-12-18T00:45:13;14.05;;;9.00;;
55300;SDS011;58302;51.446;-2.000;2022-12-18T00:47:39;22.88;;;10.55;;
55300;SDS011;58302;51.446;-2.000;2022-12-18T00:50:06;15.73;;;7.82;;
55300;SDS011;58302;51.446;-2.000;2022-12-18T00:52:32;20.58;;;10.07;;
55300;SDS011;58302;51.446;-2.000;2022-12-18T00:54:58;20.75;;;8.93;;
55300;SDS011;58302;51.446;-2.000;2022-12-18T00:57:24;15.93;;;8.85;;
55300;SDS011;58302;51.446;-2.000;2022-12-18T00:59:50;19.73;;;9.70;;
55300;SDS011;58302;51.446;-2.000;2022-12-18T01:02:16;19.83;;;11.02;;
55300;SDS011;58302;51.446;-2.000;2022-12-18T01:04:42;17.35;;;9.18;;
55300;SDS011;58302;51.446;-2.000;2022-12-18T01:07:08;19.80;;;9.10;;
55300;SDS011;58302;51.446;-2.000;2022-12-18T01:09:33;22.17;;;10.25;;
55300;SDS011;58302;51.446;-2.000;2022-12-18T01:12:00;21.17;;;10.40;;
55300;SDS011;58302;51.446;-2.000;2022-12-18T01:14:26;19.13;;;9.95;;
55300;SDS011;58302;51.446;-2.000;2022-12-18T01:16:52;21.90;;;10.73;;
55300;SDS011;58302;51.446;-2.000;2022-12-18T01:19:18;24.48;;;10.38;;
55300;SDS011;58302;51.446;-2.000;2022-12-18T01:21:44;19.92;;;11.13;;
55300;SDS011;58302;51.446;-2.000;2022-12-18T01:24:10;21.05;;;10.68;;
55300;SDS011;58302;51.446;-2.000;2022-12-18T01:26:37;23.77;;;11.38;;
55300;SDS011;58302;51.446;-2.000;2022-12-18T01:29:03;21.63;;;11.38;;
55300;SDS011;58302;51.446;-2.000;2022-12-18T01:31:30;26.38;;;12.75;;
55300;SDS011;58302;51.446;-2.000;2022-12-18T01:33:57;20.70;;;9.73;;
55300;SDS011;58302;51.446;-2.000;2022-12-18T01:36:28;24.98;;;11.57;;
55300;SDS011;58302;51.446;-2.000;2022-12-18T01:38:55;22.13;;;10.95;;
55300;SDS011;58302;51.446;-2.000;2022-12-18T01:41:23;22.45;;;11.98;;
55300;SDS011;58302;51.446;-2.000;2022-12-18T01:47:25;28.92;;;12.68;;
55300;SDS011;58302;51.446;-2.000;2022-12-18T01:49:51;19.45;;;10.88;;
55300;SDS011;58302;51.446;-2.000;2022-12-18T01:52:18;21.52;;;12.05;;
55300;SDS011;58302;51.446;-2.000;2022-12-18T01:54:46;19.23;;;10.98;;
55300;SDS011;58302;51.446;-2.000;2022-12-18T01:57:14;23.75;;;12.23;;
55300;SDS011;58302;51.446;-2.000;2022-12-18T01:59:40;22.08;;;12.30;;
55300;SDS011;58302;51.446;-2.000;2022-12-18T02:02:08;19.15;;;10.82;;
55300;SDS011;58302;51.446;-2.000;2022-12-18T02:04:34;19.70;;;9.43;;
55300;SDS011;58302;51.446;-2.000;2022-12-18T02:07:07;24.23;;;11.18;;
55300;SDS011;58302;51.446;-2.000;2022-12-18T02:09:40;28.27;;;11.52;;
55300;SDS011;58302;51.446;-2.000;2022-12-18T02:12:18;22.63;;;11.80;;
55300;SDS011;58302;51.446;-2.000;2022-12-18T02:20:24;22.17;;;12.30;;
55300;SDS011;58302;51.446;-2.000;2022-12-18T02:28:16;19.67;;;11.10;;
55300;SDS011;58302;51.446;-2.000;2022-12-18T02:30:47;24.92;;;11.05;;
55300;SDS011;58302;51.446;-2.000;2022-12-18T02:33:16;18.17;;;9.80;;
55300;SDS011;58302;51.446;-2.000;2022-12-18T02:35:44;19.48;;;10.15;;
55300;SDS011;58302;51.446;-2.000;2022-12-18T02:38:14;24.25;;;10.85;;
55300;SDS011;58302;51.446;-2.000;2022-12-18T02:40:42;21.35;;;10.98;;
55300;SDS011;58302;51.446;-2.000;2022-12-18T02:43:10;20.85;;;10.57;;
55300;SDS011;58302;51.446;-2.000;2022-12-18T02:45:50;21.92;;;11.27;;
55300;SDS011;58302;51.446;-2.000;2022-12-18T02:48:22;20.85;;;10.60;;
55300;SDS011;58302;51.446;-2.000;2022-12-18T02:50:53;21.60;;;10.77;;
55300;SDS011;58302;51.446;-2.000;2022-12-18T02:53:29;20.00;;;11.02;;
55300;SDS011;58302;51.446;-2.000;2022-12-18T02:56:09;25.05;;;11.00;;
55300;SDS011;58302;51.446;-2.000;2022-12-18T03:04:23;19.20;;;10.38;;
55300;SDS011;58302;51.446;-2.000;2022-12-18T03:07:05;23.88;;;12.50;;
55300;SDS011;58302;51.446;-2.000;2022-12-18T03:09:39;23.53;;;10.80;;
55300;SDS011;58302;51.446;-2.000;2022-12-18T03:12:12;26.45;;;12.35;;
55300;SDS011;58302;51.446;-2.000;2022-12-18T03:15:12;23.02;;;11.30;;
55300;SDS011;58302;51.446;-2.000;2022-12-18T03:17:57;25.95;;;12.98;;
55300;SDS011;58302;51.446;-2.000;2022-12-18T03:20:29;22.08;;;13.35;;
55300;SDS011;58302;51.446;-2.000;2022-12-18T03:22:59;23.90;;;12.57;;
55300;SDS011;58302;51.446;-2.000;2022-12-18T03:25:32;24.47;;;12.40;;
55300;SDS011;58302;51.446;-2.000;2022-12-18T03:28:00;23.02;;;11.25;;
55300;SDS011;58302;51.446;-2.000;2022-12-18T03:30:29;26.88;;;13.10;;
55300;SDS011;58302;51.446;-2.000;2022-12-18T03:33:10;24.05;;;11.23;;
55300;SDS011;58302;51.446;-2.000;2022-12-18T03:35:43;21.15;;;10.57;;
55300;SDS011;58302;51.446;-2.000;2022-12-18T03:38:09;20.02;;;10.57;;
55300;SDS011;58302;51.446;-2.000;2022-12-18T03:44:23;24.92;;;12.02;;
55300;SDS011;58302;51.446;-2.000;2022-12-18T03:49:17;28.73;;;12.95;;
55300;SDS011;58302;51.446;-2.000;2022-12-18T03:52:01;27.10;;;12.73;;
55300;SDS011;58302;51.446;-2.000;2022-12-18T03:54:32;20.88;;;10.15;;
55300;SDS011;58302;51.446;-2.000;2022-12-18T03:57:05;18.83;;;9.85;;
55300;SDS011;58302;51.446;-2.000;2022-12-18T03:59:35;22.10;;;10.30;;
55300;SDS011;58302;51.446;-2.000;2022-12-18T04:02:03;20.95;;;11.05;;
55300;SDS011;58302;51.446;-2.000;2022-12-18T04:04:32;17.88;;;8.80;;
55300;SDS011;58302;51.446;-2.000;2022-12-18T04:07:00;20.83;;;11.10;;
55300;SDS011;58302;51.446;-2.000;2022-12-18T04:09:27;23.05;;;9.95;;
55300;SDS011;58302;51.446;-2.000;2022-12-18T04:11:55;19.20;;;10.52;;
55300;SDS011;58302;51.446;-2.000;2022-12-18T04:14:21;23.58;;;10.75;;
55300;SDS011;58302;51.446;-2.000;2022-12-18T04:16:47;13.45;;;7.85;;
55300;SDS011;58302;51.446;-2.000;2022-12-18T04:19:13;23.42;;;10.73;;
55300;SDS011;58302;51.446;-2.000;2022-12-18T04:21:39;21.00;;;9.10;;
55300;SDS011;58302;51.446;-2.000;2022-12-18T04:24:05;21.90;;;10.05;;
55300;SDS011;58302;51.446;-2.000;2022-12-18T04:26:31;16.02;;;9.23;;
55300;SDS011;58302;51.446;-2.000;2022-12-18T04:28:57;20.77;;;10.25;;
55300;SDS011;58302;51.446;-2.000;2022-12-18T04:31:23;17.45;;;9.15;;
55300;SDS011;58302;51.446;-2.000;2022-12-18T04:33:49;19.92;;;9.40;;
55300;SDS011;58302;51.446;-2.000;2022-12-18T04:36:15;21.73;;;10.30;;
55300;SDS011;58302;51.446;-2.000;2022-12-18T04:38:40;20.73;;;10.70;;
55300;SDS011;58302;51.446;-2.000;2022-12-18T04:41:06;17.00;;;9.40;;
55300;SDS011;58302;51.446;-2.000;2022-12-18T04:43:32;18.52;;;8.57;;
55300;SDS011;58302;51.446;-2.000;2022-12-18T04:46:04;19.83;;;10.00;;
55300;SDS011;58302;51.446;-2.000;2022-12-18T04:48:31;19.67;;;10.48;;
55300;SDS011;58302;51.446;-2.000;2022-12-18T04:50:58;16.35;;;9.38;;
55300;SDS011;58302;51.446;-2.000;2022-12-18T04:53:24;19.15;;;10.20;;
55300;SDS011;58302;51.446;-2.000;2022-12-18T04:55:50;17.77;;;9.57;;
55300;SDS011;58302;51.446;-2.000;2022-12-18T04:58:16;14.07;;;8.90;;
55300;SDS011;58302;51.446;-2.000;2022-12-18T05:00:42;18.52;;;9.73;;
55300;SDS011;58302;51.446;-2.000;2022-12-18T05:03:08;18.25;;;9.43;;
55300;SDS011;58302;51.446;-2.000;2022-12-18T05:05:34;16.30;;;9.05;;
55300;SDS011;58302;51.446;-2.000;2022-12-18T05:08:01;18.55;;;9.65;;
55300;SDS011;58302;51.446;-2.000;2022-12-18T05:10:27;21.63;;;8.95;;
55300;SDS011;58302;51.446;-2.000;2022-12-18T05:12:53;17.75;;;9.18;;
55300;SDS011;58302;51.446;-2.000;2022-12-18T05:15:31;18.35;;;9.85;;
55300;SDS011;58302;51.446;-2.000;2022-12-18T05:17:58;17.08;;;9.23;;
55300;SDS011;58302;51.446;-2.000;2022-12-18T05:20:24;15.68;;;8.60;;
55300;SDS011;58302;51.446;-2.000;2022-12-18T05:22:52;16.55;;;7.13;;
55300;SDS011;58302;51.446;-2.000;2022-12-18T05:25:18;19.67;;;9.60;;
55300;SDS011;58302;51.446;-2.000;2022-12-18T05:27:45;15.02;;;7.93;;
55300;SDS011;58302;51.446;-2.000;2022-12-18T05:30:11;16.85;;;8.43;;
55300;SDS011;58302;51.446;-2.000;2022-12-18T05:32:38;15.13;;;8.52;;
55300;SDS011;58302;51.446;-2.000;2022-12-18T05:35:04;21.52;;;10.07;;
55300;SDS011;58302;51.446;-2.000;2022-12-18T05:37:31;14.75;;;8.35;;
55300;SDS011;58302;51.446;-2.000;2022-12-18T05:39:57;14.10;;;8.75;;
55300;SDS011;58302;51.446;-2.000;2022-12-18T05:42:23;22.35;;;9.18;;
55300;SDS011;58302;51.446;-2.000;2022-12-18T05:44:51;20.55;;;9.18;;
55300;SDS011;58302;51.446;-2.000;2022-12-18T05:47:16;16.83;;;8.93;;
55300;SDS011;58302;51.446;-2.000;2022-12-18T05:49:42;15.65;;;8.60;;
55300;SDS011;58302;51.446;-2.000;2022-12-18T05:52:08;21.02;;;9.98;;
55300;SDS011;58302;51.446;-2.000;2022-12-18T05:54:34;18.83;;;7.93;;
55300;SDS011;58302;51.446;-2.000;2022-12-18T05:57:00;20.27;;;8.57;;
55300;SDS011;58302;51.446;-2.000;2022-12-18T05:59:26;12.82;;;8.15;;
55300;SDS011;58302;51.446;-2.000;2022-12-18T06:01:52;13.30;;;7.40;;
55300;SDS011;58302;51.446;-2.000;2022-12-18T06:04:18;14.38;;;8.32;;
55300;SDS011;58302;51.446;-2.000;2022-12-18T06:06:44;17.27;;;9.18;;
55300;SDS011;58302;51.446;-2.000;2022-12-18T06:09:10;13.77;;;8.07;;
55300;SDS011;58302;51.446;-2.000;2022-12-18T06:11:36;14.68;;;7.85;;
55300;SDS011;58302;51.446;-2.000;2022-12-18T06:14:03;16.73;;;8.40;;
55300;SDS011;58302;51.446;-2.000;2022-12-18T06:16:31;12.68;;;6.78;;
55300;SDS011;58302;51.446;-2.000;2022-12-18T06:18:57;15.80;;;8.75;;
55300;SDS011;58302;51.446;-2.000;2022-12-18T06:21:24;17.23;;;9.25;;
55300;SDS011;58302;51.446;-2.000;2022-12-18T06:23:50;13.63;;;8.13;;
55300;SDS011;58302;51.446;-2.000;2022-12-18T06:26:16;17.20;;;9.32;;
55300;SDS011;58302;51.446;-2.000;2022-12-18T06:28:42;24.75;;;9.02;;
55300;SDS011;58302;51.446;-2.000;2022-12-18T06:31:08;16.13;;;9.00;;
55300;SDS011;58302;51.446;-2.000;2022-12-18T06:33:35;16.13;;;8.82;;
55300;SDS011;58302;51.446;-2.000;2022-12-18T06:36:08;16.13;;;10.60;;
55300;SDS011;58302;51.446;-2.000;2022-12-18T06:38:36;13.25;;;8.10;;
55300;SDS011;58302;51.446;-2.000;2022-12-18T06:41:07;18.45;;;10.65;;
55300;SDS011;58302;51.446;-2.000;2022-12-18T06:43:37;18.60;;;8.65;;
55300;SDS011;58302;51.446;-2.000;2022-12-18T06:46:03;15.13;;;8.35;;
55300;SDS011;58302;51.446;-2.000;2022-12-18T06:48:29;15.70;;;8.80;;
55300;SDS011;58302;51.446;-2.000;2022-12-18T06:50:56;17.30;;;7.93;;
55300;SDS011;58302;51.446;-2.000;2022-12-18T06:53:22;13.57;;;8.10;;
55300;SDS011;58302;51.446;-2.000;2022-12-18T06:55:48;16.67;;;9.95;;
55300;SDS011;58302;51.446;-2.000;2022-12-18T06:58:14;18.33;;;8.55;;
55300;SDS011;58302;51.446;-2.000;2022-12-18T07:00:41;19.70;;;8.82;;
55300;SDS011;58302;51.446;-2.000;2022-12-18T07:03:07;16.73;;;8.95;;
55300;SDS011;58302;51.446;-2.000;2022-12-18T07:05:33;14.40;;;7.97;;
55300;SDS011;58302;51.446;-2.000;2022-12-18T07:07:59;17.83;;;9.48;;
55300;SDS011;58302;51.446;-2.000;2022-12-18T07:10:25;14.32;;;7.88;;
55300;SDS011;58302;51.446;-2.000;2022-12-18T07:12:51;12.65;;;7.00;;
55300;SDS011;58302;51.446;-2.000;2022-12-18T07:15:17;14.13;;;7.85;;
55300;SDS011;58302;51.446;-2.000;2022-12-18T07:17:43;18.40;;;9.00;;
55300;SDS011;58302;51.446;-2.000;2022-12-18T07:20:09;15.80;;;7.72;;
55300;SDS011;58302;51.446;-2.000;2022-12-18T07:22:35;15.40;;;7.88;;
55300;SDS011;58302;51.446;-2.000;2022-12-18T07:25:01;16.80;;;8.93;;
55300;SDS011;58302;51.446;-2.000;2022-12-18T07:27:27;16.20;;;8.20;;
55300;SDS011;58302;51.446;-2.000;2022-12-18T07:29:53;18.23;;;9.63;;
55300;SDS011;58302;51.446;-2.000;2022-12-18T07:32:20;15.65;;;8.25;;
55300;SDS011;58302;51.446;-2.000;2022-12-18T07:34:46;16.60;;;9.00;;
55300;SDS011;58302;51.446;-2.000;2022-12-18T07:37:12;12.93;;;8.00;;
55300;SDS011;58302;51.446;-2.000;2022-12-18T07:39:38;16.27;;;9.20;;
55300;SDS011;58302;51.446;-2.000;2022-12-18T07:42:04;10.82;;;6.03;;
55300;SDS011;58302;51.446;-2.000;2022-12-18T07:45:02;18.02;;;9.63;;
55300;SDS011;58302;51.446;-2.000;2022-12-18T07:47:29;16.95;;;8.98;;
55300;SDS011;58302;51.446;-2.000;2022-12-18T07:49:56;26.13;;;8.50;;
55300;SDS011;58302;51.446;-2.000;2022-12-18T07:52:22;16.15;;;8.00;;
55300;SDS011;58302;51.446;-2.000;2022-12-18T07:54:48;16.67;;;8.07;;
55300;SDS011;58302;51.446;-2.000;2022-12-18T07:57:17;17.10;;;8.10;;
55300;SDS011;58302;51.446;-2.000;2022-12-18T07:59:43;15.63;;;9.35;;
55300;SDS011;58302;51.446;-2.000;2022-12-18T08:02:09;17.00;;;7.57;;
55300;SDS011;58302;51.446;-2.000;2022-12-18T08:04:35;12.25;;;7.57;;
55300;SDS011;58302;51.446;-2.000;2022-12-18T08:07:01;15.93;;;9.02;;
55300;SDS011;58302;51.446;-2.000;2022-12-18T08:09:27;13.10;;;7.63;;
55300;SDS011;58302;51.446;-2.000;2022-12-18T08:11:53;14.85;;;8.27;;
55300;SDS011;58302;51.446;-2.000;2022-12-18T08:14:19;21.95;;;11.88;;
55300;SDS011;58302;51.446;-2.000;2022-12-18T08:16:45;16.70;;;8.00;;
55300;SDS011;58302;51.446;-2.000;2022-12-18T08:19:11;14.38;;;6.82;;
55300;SDS011;58302;51.446;-2.000;2022-12-18T08:21:37;10.95;;;6.80;;
55300;SDS011;58302;51.446;-2.000;2022-12-18T08:24:03;15.63;;;7.32;;
55300;SDS011;58302;51.446;-2.000;2022-12-18T08:26:30;19.98;;;9.35;;
55300;SDS011;58302;51.446;-2.000;2022-12-18T08:28:58;18.60;;;9.45;;
55300;SDS011;58302;51.446;-2.000;2022-12-18T08:31:26;20.10;;;10.05;;
55300;SDS011;58302;51.446;-2.000;2022-12-18T08:33:53;17.70;;;9.05;;
55300;SDS011;58302;51.446;-2.000;2022-12-18T08:36:19;14.95;;;8.43;;
55300;SDS011;58302;51.446;-2.000;2022-12-18T08:38:46;14.93;;;8.85;;
55300;SDS011;58302;51.446;-2.000;2022-12-18T08:41:13;14.77;;;8.85;;
55300;SDS011;58302;51.446;-2.000;2022-12-18T08:43:40;26.15;;;10.98;;
55300;SDS011;58302;51.446;-2.000;2022-12-18T08:46:26;27.45;;;8.00;;
55300;SDS011;58302;51.446;-2.000;2022-12-18T08:48:56;19.00;;;10.23;;
55300;SDS011;58302;51.446;-2.000;2022-12-18T08:51:22;16.67;;;8.85;;
55300;SDS011;58302;51.446;-2.000;2022-12-18T08:53:48;8.73;;;5.88;;
55300;SDS011;58302;51.446;-2.000;2022-12-18T08:56:14;15.32;;;7.55;;
55300;SDS011;58302;51.446;-2.000;2022-12-18T08:58:41;20.30;;;10.73;;
55300;SDS011;58302;51.446;-2.000;2022-12-18T09:01:09;18.95;;;10.35;;
55300;SDS011;58302;51.446;-2.000;2022-12-18T09:03:37;21.55;;;11.05;;
55300;SDS011;58302;51.446;-2.000;2022-12-18T09:06:04;22.13;;;10.90;;
55300;SDS011;58302;51.446;-2.000;2022-12-18T09:08:31;16.08;;;8.50;;
55300;SDS011;58302;51.446;-2.000;2022-12-18T09:10:56;16.90;;;9.02;;
55300;SDS011;58302;51.446;-2.000;2022-12-18T09:13:22;18.35;;;11.10;;
55300;SDS011;58302;51.446;-2.000;2022-12-18T09:15:49;17.45;;;8.75;;
55300;SDS011;58302;51.446;-2.000;2022-12-18T09:18:19;21.10;;;9.82;;
55300;SDS011;58302;51.446;-2.000;2022-12-18T09:20:46;16.50;;;8.10;;
55300;SDS011;58302;51.446;-2.000;2022-12-18T09:23:12;17.85;;;9.90;;
55300;SDS011;58302;51.446;-2.000;2022-12-18T09:25:39;14.70;;;8.95;;
55300;SDS011;58302;51.446;-2.000;2022-12-18T09:28:09;21.92;;;12.00;;
55300;SDS011;58302;51.446;-2.000;2022-12-18T09:30:41;23.95;;;11.20;;
55300;SDS011;58302;51.446;-2.000;2022-12-18T09:33:09;18.15;;;10.32;;
55300;SDS011;58302;51.446;-2.000;2022-12-18T09:35:36;19.45;;;10.48;;
55300;SDS011;58302;51.446;-2.000;2022-12-18T09:38:02;17.63;;;10.88;;
55300;SDS011;58302;51.446;-2.000;2022-12-18T09:40:29;19.70;;;10.20;;
55300;SDS011;58302;51.446;-2.000;2022-12-18T09:43:03;23.90;;;12.43;;
55300;SDS011;58302;51.446;-2.000;2022-12-18T09:45:32;18.83;;;10.40;;
55300;SDS011;58302;51.446;-2.000;2022-12-18T09:48:26;14.35;;;8.90;;
55300;SDS011;58302;51.446;-2.000;2022-12-18T09:50:58;23.97;;;10.87;;
55300;SDS011;58302;51.446;-2.000;2022-12-18T09:53:30;15.32;;;8.18;;
55300;SDS011;58302;51.446;-2.000;2022-12-18T09:56:00;23.83;;;12.77;;
55300;SDS011;58302;51.446;-2.000;2022-12-18T09:58:32;22.50;;;11.63;;
55300;SDS011;58302;51.446;-2.000;2022-12-18T10:01:14;20.02;;;11.15;;
55300;SDS011;58302;51.446;-2.000;2022-12-18T10:03:43;17.58;;;10.73;;
55300;SDS011;58302;51.446;-2.000;2022-12-18T10:27:04;25.90;;;14.75;;
55300;SDS011;58302;51.446;-2.000;2022-12-18T10:29:38;30.23;;;12.95;;
55300;SDS011;58302;51.446;-2.000;2022-12-18T10:32:04;30.45;;;13.50;;
55300;SDS011;58302;51.446;-2.000;2022-12-18T10:34:30;24.23;;;14.10;;
55300;SDS011;58302;51.446;-2.000;2022-12-18T10:36:55;30.15;;;14.88;;
55300;SDS011;58302;51.446;-2.000;2022-12-18T10:39:23;17.33;;;7.60;;
55300;SDS011;58302;51.446;-2.000;2022-12-18T10:41:51;17.98;;;9.77;;
55300;SDS011;58302;51.446;-2.000;2022-12-18T10:44:30;25.00;;;13.73;;
55300;SDS011;58302;51.446;-2.000;2022-12-18T10:47:02;19.63;;;11.02;;
55300;SDS011;58302;51.446;-2.000;2022-12-18T10:49:31;28.60;;;13.93;;
55300;SDS011;58302;51.446;-2.000;2022-12-18T10:52:07;30.63;;;14.65;;
55300;SDS011;58302;51.446;-2.000;2022-12-18T10:54:45;19.02;;;12.95;;
55300;SDS011;58302;51.446;-2.000;2022-12-18T10:57:14;15.00;;;10.18;;
55300;SDS011;58302;51.446;-2.000;2022-12-18T10:59:54;23.17;;;12.30;;
55300;SDS011;58302;51.446;-2.000;2022-12-18T11:04:54;28.33;;;13.40;;
55300;SDS011;58302;51.446;-2.000;2022-12-18T11:07:20;22.60;;;12.40;;
55300;SDS011;58302;51.446;-2.000;2022-12-18T11:09:46;16.98;;;10.30;;
55300;SDS011;58302;51.446;-2.000;2022-12-18T11:12:25;21.50;;;12.82;;
55300;SDS011;58302;51.446;-2.000;2022-12-18T11:14:54;15.70;;;10.00;;
55300;SDS011;58302;51.446;-2.000;2022-12-18T11:17:32;16.02;;;9.43;;
55300;SDS011;58302;51.446;-2.000;2022-12-18T11:20:07;21.90;;;9.50;;
55300;SDS011;58302;51.446;-2.000;2022-12-18T11:23:10;13.82;;;8.32;;
55300;SDS011;58302;51.446;-2.000;2022-12-18T11:25:38;19.08;;;10.40;;
55300;SDS011;58302;51.446;-2.000;2022-12-18T11:33:46;21.50;;;11.57;;
55300;SDS011;58302;51.446;-2.000;2022-12-18T11:36:28;22.65;;;12.13;;
55300;SDS011;58302;51.446;-2.000;2022-12-18T11:38:58;26.77;;;13.60;;
55300;SDS011;58302;51.446;-2.000;2022-12-18T11:41:29;20.05;;;9.75;;
55300;SDS011;58302;51.446;-2.000;2022-12-18T11:44:22;18.90;;;10.77;;
55300;SDS011;58302;51.446;-2.000;2022-12-18T11:47:29;20.90;;;12.00;;
55300;SDS011;58302;51.446;-2.000;2022-12-18T11:49:55;17.45;;;9.05;;
55300;SDS011;58302;51.446;-2.000;2022-12-18T11:52:26;15.60;;;9.15;;
55300;SDS011;58302;51.446;-2.000;2022-12-18T11:54:59;17.75;;;11.02;;
55300;SDS011;58302;51.446;-2.000;2022-12-18T11:57:34;22.35;;;12.52;;
55300;SDS011;58302;51.446;-2.000;2022-12-18T12:00:12;17.73;;;10.23;;
55300;SDS011;58302;51.446;-2.000;2022-12-18T12:08:15;14.38;;;7.18;;
55300;SDS011;58302;51.446;-2.000;2022-12-18T12:11:09;19.88;;;11.70;;
55300;SDS011;58302;51.446;-2.000;2022-12-18T12:13:40;27.98;;;13.75;;
55300;SDS011;58302;51.446;-2.000;2022-12-18T12:22:07;16.67;;;10.45;;
55300;SDS011;58302;51.446;-2.000;2022-12-18T12:24:39;17.10;;;8.75;;
55300;SDS011;58302;51.446;-2.000;2022-12-18T12:27:40;14.63;;;9.02;;
55300;SDS011;58302;51.446;-2.000;2022-12-18T12:30:18;19.00;;;9.05;;
55300;SDS011;58302;51.446;-2.000;2022-12-18T12:32:54;25.05;;;12.40;;
55300;SDS011;58302;51.446;-2.000;2022-12-18T12:35:59;15.02;;;8.73;;
55300;SDS011;58302;51.446;-2.000;2022-12-18T12:39:17;25.35;;;11.82;;
55300;SDS011;58302;51.446;-2.000;2022-12-18T12:41:24;14.75;;;8.20;;
55300;SDS011;58302;51.446;-2.000;2022-12-18T12:44:14;15.73;;;8.20;;
55300;SDS011;58302;51.446;-2.000;2022-12-18T12:46:44;12.02;;;5.78;;
55300;SDS011;58302;51.446;-2.000;2022-12-18T12:49:12;16.70;;;8.70;;
55300;SDS011;58302;51.446;-2.000;2022-12-18T12:51:43;20.88;;;9.95;;
55300;SDS011;58302;51.446;-2.000;2022-12-18T12:54:16;12.48;;;6.00;;
55300;SDS011;58302;51.446;-2.000;2022-12-18T13:07:29;11.75;;;7.10;;
55300;SDS011;58302;51.446;-2.000;2022-12-18T13:12:51;10.95;;;6.22;;
55300;SDS011;58302;51.446;-2.000;2022-12-18T13:15:28;12.93;;;7.25;;
55300;SDS011;58302;51.446;-2.000;2022-12-18T13:20:36;13.27;;;7.82;;
55300;SDS011;58302;51.446;-2.000;2022-12-18T13:23:19;10.50;;;5.68;;
55300;SDS011;58302;51.446;-2.000;2022-12-18T13:32:00;5.97;;;3.90;;
55300;SDS011;58302;51.446;-2.000;2022-12-18T13:34:17;10.18;;;5.10;;
55300;SDS011;58302;51.446;-2.000;2022-12-18T13:36:47;7.20;;;5.10;;
55300;SDS011;58302;51.446;-2.000;2022-12-18T13:41:43;9.13;;;5.53;;
55300;SDS011;58302;51.446;-2.000;2022-12-18T13:47:01;8.65;;;5.68;;
55300;SDS011;58302;51.446;-2.000;2022-12-18T13:51:58;6.93;;;5.20;;
55300;SDS011;58302;51.446;-2.000;2022-12-18T13:57:05;13.90;;;6.85;;
55300;SDS011;58302;51.446;-2.000;2022-12-18T13:59:50;7.40;;;5.03;;
55300;SDS011;58302;51.446;-2.000;2022-12-18T14:02:17;1.25;;;1.00;;
55300;SDS011;58302;51.446;-2.000;2022-12-18T14:04:48;3.10;;;2.90;;
55300;SDS011;58302;51.446;-2.000;2022-12-18T14:07:15;2.25;;;2.15;;
55300;SDS011;58302;51.446;-2.000;2022-12-18T14:09:45;0.73;;;0.73;;
55300;SDS011;58302;51.446;-2.000;2022-12-18T14:12:18;0.68;;;0.63;;
55300;SDS011;58302;51.446;-2.000;2022-12-18T14:18:08;2.55;;;2.40;;
55300;SDS011;58302;51.446;-2.000;2022-12-18T14:20:50;3.22;;;2.25;;
55300;SDS011;58302;51.446;-2.000;2022-12-18T14:23:35;0.98;;;0.98;;
55300;SDS011;58302;51.446;-2.000;2022-12-18T14:26:17;0.00;;;0.00;;
55300;SDS011;58302;51.446;-2.000;2022-12-18T14:28:47;0.55;;;0.55;;
55300;SDS011;58302;51.446;-2.000;2022-12-18T14:31:17;0.32;;;0.32;;
55300;SDS011;58302;51.446;-2.000;2022-12-18T14:33:45;0.10;;;0.10;;
55300;SDS011;58302;51.446;-2.000;2022-12-18T14:36:14;0.05;;;0.05;;
55300;SDS011;58302;51.446;-2.000;2022-12-18T14:38:42;0.00;;;0.00;;
55300;SDS011;58302;51.446;-2.000;2022-12-18T14:41:12;1.50;;;1.45;;
55300;SDS011;58302;51.446;-2.000;2022-12-18T14:43:41;0.55;;;0.55;;
55300;SDS011;58302;51.446;-2.000;2022-12-18T14:48:53;0.10;;;0.10;;
55300;SDS011;58302;51.446;-2.000;2022-12-18T14:51:21;0.10;;;0.10;;
55300;SDS011;58302;51.446;-2.000;2022-12-18T14:53:53;0.50;;;0.50;;
55300;SDS011;58302;51.446;-2.000;2022-12-18T14:56:22;0.10;;;0.10;;
55300;SDS011;58302;51.446;-2.000;2022-12-18T14:58:51;0.32;;;0.32;;
55300;SDS011;58302;51.446;-2.000;2022-12-18T15:01:21;0.55;;;0.55;;
55300;SDS011;58302;51.446;-2.000;2022-12-18T15:03:58;0.05;;;0.05;;
55300;SDS011;58302;51.446;-2.000;2022-12-18T15:09:00;1.95;;;1.95;;
55300;SDS011;58302;51.446;-2.000;2022-12-18T15:11:49;0.52;;;0.52;;
55300;SDS011;58302;51.446;-2.000;2022-12-18T15:16:57;0.00;;;0.00;;
55300;SDS011;58302;51.446;-2.000;2022-12-18T15:19:31;0.10;;;0.10;;
55300;SDS011;58302;51.446;-2.000;2022-12-18T15:22:00;0.28;;;0.28;;
55300;SDS011;58302;51.446;-2.000;2022-12-18T15:24:27;0.00;;;0.00;;
55300;SDS011;58302;51.446;-2.000;2022-12-18T15:26:56;0.03;;;0.03;;
55300;SDS011;58302;51.446;-2.000;2022-12-18T15:29:23;0.47;;;0.47;;
55300;SDS011;58302;51.446;-2.000;2022-12-18T15:31:59;0.10;;;0.10;;
55300;SDS011;58302;51.446;-2.000;2022-12-18T15:34:26;0.00;;;0.00;;
55300;SDS011;58302;51.446;-2.000;2022-12-18T15:36:52;0.00;;;0.00;;
55300;SDS011;58302;51.446;-2.000;2022-12-18T15:39:18;0.30;;;0.28;;
55300;SDS011;58302;51.446;-2.000;2022-12-18T15:41:44;0.20;;;0.10;;
55300;SDS011;58302;51.446;-2.000;2022-12-18T15:44:30;0.00;;;0.00;;
55300;SDS011;58302;51.446;-2.000;2022-12-18T15:46:56;0.10;;;0.10;;
55300;SDS011;58302;51.446;-2.000;2022-12-18T15:49:23;0.40;;;0.40;;
55300;SDS011;58302;51.446;-2.000;2022-12-18T15:51:51;0.70;;;0.70;;
55300;SDS011;58302;51.446;-2.000;2022-12-18T15:54:19;0.00;;;0.00;;
55300;SDS011;58302;51.446;-2.000;2022-12-18T15:57:09;0.00;;;0.00;;
55300;SDS011;58302;51.446;-2.000;2022-12-18T15:59:48;1.55;;;1.45;;
55300;SDS011;58302;51.446;-2.000;2022-12-18T16:02:18;12.25;;;7.38;;
55300;SDS011;58302;51.446;-2.000;2022-12-18T16:04:46;0.50;;;0.50;;
55300;SDS011;58302;51.446;-2.000;2022-12-18T16:07:12;0.00;;;0.00;;
55300;SDS011;58302;51.446;-2.000;2022-12-18T16:09:38;0.00;;;0.00;;
55300;SDS011;58302;51.446;-2.000;2022-12-18T16:12:04;0.00;;;0.00;;
55300;SDS011;58302;51.446;-2.000;2022-12-18T16:14:32;0.00;;;0.00;;
55300;SDS011;58302;51.446;-2.000;2022-12-18T16:16:59;0.20;;;0.20;;
55300;SDS011;58302;51.446;-2.000;2022-12-18T16:19:27;0.25;;;0.25;;
55300;SDS011;58302;51.446;-2.000;2022-12-18T16:21:55;1.25;;;1.25;;
55300;SDS011;58302;51.446;-2.000;2022-12-18T16:24:23;0.17;;;0.17;;